sensor_id;sensor_type;location;lat;lon;timestamp;P1;durP1;ratioP1;P2;durP2;ratioP2
7029;SDS011;3556;53.500;10.176;2022-10-28T00:01:17;5.13;;;4.80;;
7029;SDS011;3556;53.500;10.176;2022-10-28T00:03:45;4.50;;;4.30;;
7029;SDS011;3556;53.500;10.176;2022-10-28T00:06:16;6.30;;;4.67;;
7029;SDS011;3556;53.500;10.176;2022-10-28T00:09:01;7.20;;;4.73;;
7029;SDS011;3556;53.500;10.176;2022-10-28T00:11:28;6.83;;;5.43;;
7029;SDS011;3556;53.500;10.176;2022-10-28T00:13:58;6.73;;;6.20;;
7029;SDS011;3556;53.500;10.176;2022-10-28T00:16:26;9.27;;;5.70;;
7029;SDS011;3556;53.500;10.176;2022-10-28T00:18:53;9.20;;;4.60;;
7029;SDS011;3556;53.500;10.176;2022-10-28T00:21:24;9.17;;;6.33;;
7029;SDS011;3556;53.500;10.176;2022-10-28T00:23:52;4.80;;;4.53;;
7029;SDS011;3556;53.500;10.176;2022-10-28T00:26:19;5.73;;;5.40;;
7029;SDS011;3556;53.500;10.176;2022-10-28T00:28:48;5.47;;;5.10;;
7029;SDS011;3556;53.500;10.176;2022-10-28T00:31:16;5.83;;;5.40;;
7029;SDS011;3556;53.500;10.176;2022-10-28T00:33:43;5.50;;;5.00;;
7029;SDS011;3556;53.500;10.176;2022-10-28T00:36:22;7.10;;;5.40;;
7029;SDS011;3556;53.500;10.176;2022-10-28T00:38:54;5.33;;;5.10;;
7029;SDS011;3556;53.500;10.176;2022-10-28T00:41:24;6.63;;;5.20;;
7029;SDS011;3556;53.500;10.176;2022-10-28T00:43:59;5.63;;;4.90;;
7029;SDS011;3556;53.500;10.176;2022-10-28T00:46:30;10.03;;;6.30;;
7029;SDS011;3556;53.500;10.176;2022-10-28T00:49:08;5.73;;;5.20;;
7029;SDS011;3556;53.500;10.176;2022-10-28T00:51:40;5.17;;;4.87;;
7029;SDS011;3556;53.500;10.176;2022-10-28T00:54:06;6.47;;;5.73;;
7029;SDS011;3556;53.500;10.176;2022-10-28T00:56:33;5.40;;;4.90;;
7029;SDS011;3556;53.500;10.176;2022-10-28T00:59:03;7.90;;;5.80;;
7029;SDS011;3556;53.500;10.176;2022-10-28T01:01:32;6.20;;;5.30;;
7029;SDS011;3556;53.500;10.176;2022-10-28T01:03:58;6.23;;;4.60;;
7029;SDS011;3556;53.500;10.176;2022-10-28T01:06:25;9.00;;;5.60;;
7029;SDS011;3556;53.500;10.176;2022-10-28T01:08:52;5.60;;;5.13;;
7029;SDS011;3556;53.500;10.176;2022-10-28T01:16:37;5.60;;;5.10;;
7029;SDS011;3556;53.500;10.176;2022-10-28T01:22:31;6.10;;;5.60;;
7029;SDS011;3556;53.500;10.176;2022-10-28T01:28:06;5.97;;;5.37;;
7029;SDS011;3556;53.500;10.176;2022-10-28T01:33:25;5.43;;;4.90;;
7029;SDS011;3556;53.500;10.176;2022-10-28T01:35:59;8.00;;;5.73;;
7029;SDS011;3556;53.500;10.176;2022-10-28T01:43:47;6.80;;;6.20;;
7029;SDS011;3556;53.500;10.176;2022-10-28T01:46:24;7.77;;;5.67;;
7029;SDS011;3556;53.500;10.176;2022-10-28T01:48:56;7.23;;;5.83;;
7029;SDS011;3556;53.500;10.176;2022-10-28T01:51:30;7.37;;;5.93;;
7029;SDS011;3556;53.500;10.176;2022-10-28T01:54:00;10.57;;;6.50;;
7029;SDS011;3556;53.500;10.176;2022-10-28T01:56:30;10.10;;;5.97;;
7029;SDS011;3556;53.500;10.176;2022-10-28T01:58:58;9.67;;;6.17;;
7029;SDS011;3556;53.500;10.176;2022-10-28T02:01:26;5.07;;;4.77;;
7029;SDS011;3556;53.500;10.176;2022-10-28T02:03:53;6.93;;;6.13;;
7029;SDS011;3556;53.500;10.176;2022-10-28T02:06:21;6.50;;;5.53;;
7029;SDS011;3556;53.500;10.176;2022-10-28T02:09:02;5.60;;;5.30;;
7029;SDS011;3556;53.500;10.176;2022-10-28T02:19:48;6.60;;;5.20;;
7029;SDS011;3556;53.500;10.176;2022-10-28T02:25:30;10.63;;;6.80;;
7029;SDS011;3556;53.500;10.176;2022-10-28T02:30:34;8.30;;;7.20;;
7029;SDS011;3556;53.500;10.176;2022-10-28T02:33:05;9.20;;;6.80;;
7029;SDS011;3556;53.500;10.176;2022-10-28T02:35:37;10.20;;;6.23;;
7029;SDS011;3556;53.500;10.176;2022-10-28T02:38:08;9.17;;;7.30;;
7029;SDS011;3556;53.500;10.176;2022-10-28T02:40:38;9.10;;;6.57;;
7029;SDS011;3556;53.500;10.176;2022-10-28T02:43:07;10.07;;;7.20;;
7029;SDS011;3556;53.500;10.176;2022-10-28T02:45:37;13.17;;;6.33;;
7029;SDS011;3556;53.500;10.176;2022-10-28T02:48:14;15.60;;;6.40;;
7029;SDS011;3556;53.500;10.176;2022-10-28T02:50:46;5.03;;;4.60;;
7029;SDS011;3556;53.500;10.176;2022-10-28T02:53:20;5.40;;;4.93;;
7029;SDS011;3556;53.500;10.176;2022-10-28T02:55:51;8.57;;;5.50;;
7029;SDS011;3556;53.500;10.176;2022-10-28T02:58:19;5.73;;;5.43;;
7029;SDS011;3556;53.500;10.176;2022-10-28T03:00:45;6.83;;;6.20;;
7029;SDS011;3556;53.500;10.176;2022-10-28T03:03:11;7.40;;;5.90;;
7029;SDS011;3556;53.500;10.176;2022-10-28T03:05:37;7.47;;;5.97;;
7029;SDS011;3556;53.500;10.176;2022-10-28T03:08:03;8.13;;;5.97;;
7029;SDS011;3556;53.500;10.176;2022-10-28T03:10:29;6.83;;;6.33;;
7029;SDS011;3556;53.500;10.176;2022-10-28T03:12:54;14.57;;;7.10;;
7029;SDS011;3556;53.500;10.176;2022-10-28T03:15:20;11.03;;;7.30;;
7029;SDS011;3556;53.500;10.176;2022-10-28T03:17:45;11.83;;;7.00;;
7029;SDS011;3556;53.500;10.176;2022-10-28T03:20:11;11.47;;;7.23;;
7029;SDS011;3556;53.500;10.176;2022-10-28T03:22:36;9.03;;;6.97;;
7029;SDS011;3556;53.500;10.176;2022-10-28T03:25:02;7.03;;;6.40;;
7029;SDS011;3556;53.500;10.176;2022-10-28T03:27:28;7.83;;;5.90;;
7029;SDS011;3556;53.500;10.176;2022-10-28T03:29:53;7.07;;;5.17;;
7029;SDS011;3556;53.500;10.176;2022-10-28T03:32:19;9.33;;;7.20;;
7029;SDS011;3556;53.500;10.176;2022-10-28T03:34:44;5.87;;;5.30;;
7029;SDS011;3556;53.500;10.176;2022-10-28T03:37:11;13.93;;;7.10;;
7029;SDS011;3556;53.500;10.176;2022-10-28T03:39:37;12.17;;;5.90;;
7029;SDS011;3556;53.500;10.176;2022-10-28T03:42:03;7.30;;;6.80;;
7029;SDS011;3556;53.500;10.176;2022-10-28T03:44:28;9.73;;;6.90;;
7029;SDS011;3556;53.500;10.176;2022-10-28T03:46:54;9.97;;;6.67;;
7029;SDS011;3556;53.500;10.176;2022-10-28T03:49:19;12.37;;;7.90;;
7029;SDS011;3556;53.500;10.176;2022-10-28T03:51:45;8.13;;;7.37;;
7029;SDS011;3556;53.500;10.176;2022-10-28T03:54:11;10.67;;;7.63;;
7029;SDS011;3556;53.500;10.176;2022-10-28T03:56:36;11.17;;;7.47;;
7029;SDS011;3556;53.500;10.176;2022-10-28T03:59:04;14.77;;;8.20;;
7029;SDS011;3556;53.500;10.176;2022-10-28T04:01:30;8.70;;;7.90;;
7029;SDS011;3556;53.500;10.176;2022-10-28T04:03:56;13.03;;;7.50;;
7029;SDS011;3556;53.500;10.176;2022-10-28T04:06:22;8.73;;;7.10;;
7029;SDS011;3556;53.500;10.176;2022-10-28T04:08:47;15.73;;;8.37;;
7029;SDS011;3556;53.500;10.176;2022-10-28T04:11:13;10.57;;;7.57;;
7029;SDS011;3556;53.500;10.176;2022-10-28T04:13:39;10.43;;;7.90;;
7029;SDS011;3556;53.500;10.176;2022-10-28T04:16:04;13.83;;;7.63;;
7029;SDS011;3556;53.500;10.176;2022-10-28T04:18:30;9.30;;;7.27;;
7029;SDS011;3556;53.500;10.176;2022-10-28T04:20:56;14.97;;;7.80;;
7029;SDS011;3556;53.500;10.176;2022-10-28T04:23:22;9.83;;;6.70;;
7029;SDS011;3556;53.500;10.176;2022-10-28T04:25:50;10.23;;;7.80;;
7029;SDS011;3556;53.500;10.176;2022-10-28T04:28:17;15.23;;;8.43;;
7029;SDS011;3556;53.500;10.176;2022-10-28T04:30:45;7.73;;;7.23;;
7029;SDS011;3556;53.500;10.176;2022-10-28T04:33:11;9.53;;;7.27;;
7029;SDS011;3556;53.500;10.176;2022-10-28T04:35:37;9.77;;;7.77;;
7029;SDS011;3556;53.500;10.176;2022-10-28T04:38:03;9.37;;;7.17;;
7029;SDS011;3556;53.500;10.176;2022-10-28T04:40:29;11.80;;;8.10;;
7029;SDS011;3556;53.500;10.176;2022-10-28T04:42:54;10.10;;;7.50;;
7029;SDS011;3556;53.500;10.176;2022-10-28T04:45:20;12.33;;;6.97;;
7029;SDS011;3556;53.500;10.176;2022-10-28T04:47:45;14.23;;;7.30;;
7029;SDS011;3556;53.500;10.176;2022-10-28T04:50:11;7.63;;;6.90;;
7029;SDS011;3556;53.500;10.176;2022-10-28T04:52:37;11.23;;;7.10;;
7029;SDS011;3556;53.500;10.176;2022-10-28T04:55:02;13.47;;;7.13;;
7029;SDS011;3556;53.500;10.176;2022-10-28T04:57:28;13.37;;;7.80;;
7029;SDS011;3556;53.500;10.176;2022-10-28T04:59:54;11.50;;;7.40;;
7029;SDS011;3556;53.500;10.176;2022-10-28T05:02:21;8.07;;;7.07;;
7029;SDS011;3556;53.500;10.176;2022-10-28T05:04:47;6.67;;;6.20;;
7029;SDS011;3556;53.500;10.176;2022-10-28T05:07:12;21.27;;;7.63;;
7029;SDS011;3556;53.500;10.176;2022-10-28T05:09:38;9.57;;;7.57;;
7029;SDS011;3556;53.500;10.176;2022-10-28T05:12:04;8.57;;;7.70;;
7029;SDS011;3556;53.500;10.176;2022-10-28T05:14:30;12.23;;;7.10;;
7029;SDS011;3556;53.500;10.176;2022-10-28T05:16:56;9.77;;;7.70;;
7029;SDS011;3556;53.500;10.176;2022-10-28T05:19:21;29.37;;;7.50;;
7029;SDS011;3556;53.500;10.176;2022-10-28T05:21:47;10.47;;;7.13;;
7029;SDS011;3556;53.500;10.176;2022-10-28T05:24:12;11.57;;;7.63;;
7029;SDS011;3556;53.500;10.176;2022-10-28T05:26:38;8.50;;;7.43;;
7029;SDS011;3556;53.500;10.176;2022-10-28T05:29:04;8.63;;;7.80;;
7029;SDS011;3556;53.500;10.176;2022-10-28T05:31:29;9.83;;;7.70;;
7029;SDS011;3556;53.500;10.176;2022-10-28T05:33:55;14.40;;;8.40;;
7029;SDS011;3556;53.500;10.176;2022-10-28T05:36:20;8.97;;;7.70;;
7029;SDS011;3556;53.500;10.176;2022-10-28T05:38:46;8.43;;;7.67;;
7029;SDS011;3556;53.500;10.176;2022-10-28T05:41:11;13.47;;;7.70;;
7029;SDS011;3556;53.500;10.176;2022-10-28T05:43:37;16.37;;;8.20;;
7029;SDS011;3556;53.500;10.176;2022-10-28T05:46:02;13.27;;;7.93;;
7029;SDS011;3556;53.500;10.176;2022-10-28T05:48:29;10.47;;;7.57;;
7029;SDS011;3556;53.500;10.176;2022-10-28T05:50:54;13.40;;;7.47;;
7029;SDS011;3556;53.500;10.176;2022-10-28T05:53:20;7.20;;;5.60;;
7029;SDS011;3556;53.500;10.176;2022-10-28T05:55:45;6.83;;;6.20;;
7029;SDS011;3556;53.500;10.176;2022-10-28T05:58:11;13.63;;;7.37;;
7029;SDS011;3556;53.500;10.176;2022-10-28T06:00:36;6.60;;;5.60;;
7029;SDS011;3556;53.500;10.176;2022-10-28T06:03:02;7.30;;;6.70;;
7029;SDS011;3556;53.500;10.176;2022-10-28T06:05:30;12.53;;;6.60;;
7029;SDS011;3556;53.500;10.176;2022-10-28T06:07:56;7.97;;;6.30;;
7029;SDS011;3556;53.500;10.176;2022-10-28T06:10:22;7.77;;;6.77;;
7029;SDS011;3556;53.500;10.176;2022-10-28T06:12:47;11.67;;;6.70;;
7029;SDS011;3556;53.500;10.176;2022-10-28T06:15:13;8.30;;;6.80;;
7029;SDS011;3556;53.500;10.176;2022-10-28T06:17:38;7.73;;;6.40;;
7029;SDS011;3556;53.500;10.176;2022-10-28T06:20:04;5.73;;;5.40;;
7029;SDS011;3556;53.500;10.176;2022-10-28T06:22:30;9.13;;;6.80;;
7029;SDS011;3556;53.500;10.176;2022-10-28T06:24:56;8.77;;;7.20;;
7029;SDS011;3556;53.500;10.176;2022-10-28T06:27:22;8.40;;;6.67;;
7029;SDS011;3556;53.500;10.176;2022-10-28T06:29:47;6.60;;;6.10;;
7029;SDS011;3556;53.500;10.176;2022-10-28T06:32:13;9.87;;;6.30;;
7029;SDS011;3556;53.500;10.176;2022-10-28T06:34:38;11.30;;;7.70;;
7029;SDS011;3556;53.500;10.176;2022-10-28T06:37:04;11.83;;;7.10;;
7029;SDS011;3556;53.500;10.176;2022-10-28T06:39:31;13.20;;;8.17;;
7029;SDS011;3556;53.500;10.176;2022-10-28T06:41:57;15.00;;;8.37;;
7029;SDS011;3556;53.500;10.176;2022-10-28T06:44:22;14.50;;;8.17;;
7029;SDS011;3556;53.500;10.176;2022-10-28T06:46:48;12.30;;;8.33;;
7029;SDS011;3556;53.500;10.176;2022-10-28T06:49:13;17.00;;;7.10;;
7029;SDS011;3556;53.500;10.176;2022-10-28T06:51:39;16.93;;;8.97;;
7029;SDS011;3556;53.500;10.176;2022-10-28T06:54:04;19.70;;;8.87;;
7029;SDS011;3556;53.500;10.176;2022-10-28T06:56:30;12.33;;;8.57;;
7029;SDS011;3556;53.500;10.176;2022-10-28T06:58:56;10.80;;;7.97;;
7029;SDS011;3556;53.500;10.176;2022-10-28T07:01:21;12.40;;;9.20;;
7029;SDS011;3556;53.500;10.176;2022-10-28T07:03:47;17.90;;;8.83;;
7029;SDS011;3556;53.500;10.176;2022-10-28T07:06:13;47.47;;;9.50;;
7029;SDS011;3556;53.500;10.176;2022-10-28T07:08:40;16.07;;;9.63;;
7029;SDS011;3556;53.500;10.176;2022-10-28T07:11:05;16.50;;;9.57;;
7029;SDS011;3556;53.500;10.176;2022-10-28T07:13:31;19.70;;;10.07;;
7029;SDS011;3556;53.500;10.176;2022-10-28T07:15:58;11.47;;;9.20;;
7029;SDS011;3556;53.500;10.176;2022-10-28T07:18:26;12.67;;;9.50;;
7029;SDS011;3556;53.500;10.176;2022-10-28T07:20:53;13.23;;;9.80;;
7029;SDS011;3556;53.500;10.176;2022-10-28T07:23:22;12.53;;;9.57;;
7029;SDS011;3556;53.500;10.176;2022-10-28T07:25:51;21.13;;;10.00;;
7029;SDS011;3556;53.500;10.176;2022-10-28T07:28:18;19.07;;;9.40;;
7029;SDS011;3556;53.500;10.176;2022-10-28T07:30:44;17.33;;;10.13;;
7029;SDS011;3556;53.500;10.176;2022-10-28T07:33:09;13.27;;;9.77;;
7029;SDS011;3556;53.500;10.176;2022-10-28T07:35:35;40.20;;;10.50;;
7029;SDS011;3556;53.500;10.176;2022-10-28T07:38:01;11.57;;;9.60;;
7029;SDS011;3556;53.500;10.176;2022-10-28T07:40:26;24.37;;;9.60;;
7029;SDS011;3556;53.500;10.176;2022-10-28T07:42:52;13.13;;;9.50;;
7029;SDS011;3556;53.500;10.176;2022-10-28T07:45:17;10.90;;;9.07;;
7029;SDS011;3556;53.500;10.176;2022-10-28T07:47:43;16.23;;;8.83;;
7029;SDS011;3556;53.500;10.176;2022-10-28T07:50:09;12.10;;;8.80;;
7029;SDS011;3556;53.500;10.176;2022-10-28T07:52:36;14.23;;;8.60;;
7029;SDS011;3556;53.500;10.176;2022-10-28T07:55:02;15.40;;;9.00;;
7029;SDS011;3556;53.500;10.176;2022-10-28T07:57:28;9.93;;;8.43;;
7029;SDS011;3556;53.500;10.176;2022-10-28T07:59:54;13.73;;;8.00;;
7029;SDS011;3556;53.500;10.176;2022-10-28T08:02:21;18.30;;;9.20;;
7029;SDS011;3556;53.500;10.176;2022-10-28T08:04:48;22.17;;;8.10;;
7029;SDS011;3556;53.500;10.176;2022-10-28T08:07:14;22.57;;;7.80;;
7029;SDS011;3556;53.500;10.176;2022-10-28T08:09:40;18.40;;;7.87;;
7029;SDS011;3556;53.500;10.176;2022-10-28T08:12:06;8.87;;;7.97;;
7029;SDS011;3556;53.500;10.176;2022-10-28T08:14:33;12.97;;;7.60;;
7029;SDS011;3556;53.500;10.176;2022-10-28T08:16:59;8.37;;;6.60;;
7029;SDS011;3556;53.500;10.176;2022-10-28T08:19:25;8.20;;;7.40;;
7029;SDS011;3556;53.500;10.176;2022-10-28T08:21:50;19.33;;;8.13;;
7029;SDS011;3556;53.500;10.176;2022-10-28T08:24:16;14.93;;;7.87;;
7029;SDS011;3556;53.500;10.176;2022-10-28T08:26:42;13.30;;;7.63;;
7029;SDS011;3556;53.500;10.176;2022-10-28T08:29:10;14.23;;;7.20;;
7029;SDS011;3556;53.500;10.176;2022-10-28T08:31:36;9.97;;;7.00;;
7029;SDS011;3556;53.500;10.176;2022-10-28T08:34:02;11.37;;;7.70;;
7029;SDS011;3556;53.500;10.176;2022-10-28T08:36:29;17.00;;;7.30;;
7029;SDS011;3556;53.500;10.176;2022-10-28T08:38:54;11.77;;;7.27;;
7029;SDS011;3556;53.500;10.176;2022-10-28T08:48:55;17.27;;;6.90;;
7029;SDS011;3556;53.500;10.176;2022-10-28T08:51:22;13.13;;;7.03;;
7029;SDS011;3556;53.500;10.176;2022-10-28T08:53:56;17.97;;;7.50;;
7029;SDS011;3556;53.500;10.176;2022-10-28T08:56:27;18.37;;;6.60;;
7029;SDS011;3556;53.500;10.176;2022-10-28T08:58:58;19.50;;;6.73;;
7029;SDS011;3556;53.500;10.176;2022-10-28T09:01:38;10.47;;;7.00;;
7029;SDS011;3556;53.500;10.176;2022-10-28T09:04:13;10.67;;;6.13;;
7029;SDS011;3556;53.500;10.176;2022-10-28T09:06:47;9.27;;;6.43;;
7029;SDS011;3556;53.500;10.176;2022-10-28T09:09:17;19.63;;;7.60;;
7029;SDS011;3556;53.500;10.176;2022-10-28T09:14:51;11.37;;;7.10;;
7029;SDS011;3556;53.500;10.176;2022-10-28T09:20:00;14.60;;;7.13;;
7029;SDS011;3556;53.500;10.176;2022-10-28T09:22:35;16.63;;;7.10;;
7029;SDS011;3556;53.500;10.176;2022-10-28T09:25:14;11.20;;;6.90;;
7029;SDS011;3556;53.500;10.176;2022-10-28T09:33:18;10.03;;;6.70;;
7029;SDS011;3556;53.500;10.176;2022-10-28T09:35:57;12.37;;;6.40;;
7029;SDS011;3556;53.500;10.176;2022-10-28T09:38:26;19.60;;;6.50;;
7029;SDS011;3556;53.500;10.176;2022-10-28T09:40:59;12.90;;;5.93;;
7029;SDS011;3556;53.500;10.176;2022-10-28T09:43:33;10.73;;;5.90;;
7029;SDS011;3556;53.500;10.176;2022-10-28T09:46:07;7.70;;;5.80;;
7029;SDS011;3556;53.500;10.176;2022-10-28T09:48:38;12.43;;;5.80;;
7029;SDS011;3556;53.500;10.176;2022-10-28T09:51:10;10.50;;;5.90;;
7029;SDS011;3556;53.500;10.176;2022-10-28T09:54:00;16.27;;;6.47;;
7029;SDS011;3556;53.500;10.176;2022-10-28T09:56:27;6.50;;;6.00;;
7029;SDS011;3556;53.500;10.176;2022-10-28T09:58:54;12.60;;;5.53;;
7029;SDS011;3556;53.500;10.176;2022-10-28T10:01:23;10.67;;;6.27;;
7029;SDS011;3556;53.500;10.176;2022-10-28T10:03:50;15.70;;;5.67;;
7029;SDS011;3556;53.500;10.176;2022-10-28T10:06:32;14.47;;;5.63;;
7029;SDS011;3556;53.500;10.176;2022-10-28T10:09:01;8.60;;;5.00;;
7029;SDS011;3556;53.500;10.176;2022-10-28T10:11:33;11.73;;;4.90;;
7029;SDS011;3556;53.500;10.176;2022-10-28T10:14:05;8.23;;;4.53;;
7029;SDS011;3556;53.500;10.176;2022-10-28T10:19:10;6.83;;;4.47;;
7029;SDS011;3556;53.500;10.176;2022-10-28T10:29:34;9.40;;;4.70;;
7029;SDS011;3556;53.500;10.176;2022-10-28T10:32:04;11.90;;;4.70;;
7029;SDS011;3556;53.500;10.176;2022-10-28T10:34:52;17.00;;;4.63;;
7029;SDS011;3556;53.500;10.176;2022-10-28T10:37:21;6.60;;;5.07;;
7029;SDS011;3556;53.500;10.176;2022-10-28T10:39:58;12.00;;;5.40;;
7029;SDS011;3556;53.500;10.176;2022-10-28T10:42:52;11.37;;;5.20;;
7029;SDS011;3556;53.500;10.176;2022-10-28T10:45:20;8.97;;;3.97;;
7029;SDS011;3556;53.500;10.176;2022-10-28T10:47:48;15.57;;;4.43;;
7029;SDS011;3556;53.500;10.176;2022-10-28T10:50:31;11.17;;;4.60;;
7029;SDS011;3556;53.500;10.176;2022-10-28T10:52:57;12.87;;;5.00;;
7029;SDS011;3556;53.500;10.176;2022-10-28T10:58:04;13.60;;;4.20;;
7029;SDS011;3556;53.500;10.176;2022-10-28T11:00:35;18.33;;;4.10;;
7029;SDS011;3556;53.500;10.176;2022-10-28T11:03:03;12.03;;;3.90;;
7029;SDS011;3556;53.500;10.176;2022-10-28T11:05:30;15.20;;;4.20;;
7029;SDS011;3556;53.500;10.176;2022-10-28T11:07:57;13.93;;;3.87;;
7029;SDS011;3556;53.500;10.176;2022-10-28T11:10:29;7.50;;;4.07;;
7029;SDS011;3556;53.500;10.176;2022-10-28T11:12:57;15.93;;;4.07;;
7029;SDS011;3556;53.500;10.176;2022-10-28T11:15:29;11.23;;;3.33;;
7029;SDS011;3556;53.500;10.176;2022-10-28T11:17:59;11.33;;;3.90;;
7029;SDS011;3556;53.500;10.176;2022-10-28T11:20:49;11.90;;;3.23;;
7029;SDS011;3556;53.500;10.176;2022-10-28T11:26:12;13.23;;;4.47;;
7029;SDS011;3556;53.500;10.176;2022-10-28T11:29:00;10.67;;;3.40;;
7029;SDS011;3556;53.500;10.176;2022-10-28T11:31:46;18.10;;;4.60;;
7029;SDS011;3556;53.500;10.176;2022-10-28T11:34:35;14.13;;;4.13;;
7029;SDS011;3556;53.500;10.176;2022-10-28T11:37:20;13.67;;;3.80;;
7029;SDS011;3556;53.500;10.176;2022-10-28T11:42:50;9.27;;;3.87;;
7029;SDS011;3556;53.500;10.176;2022-10-28T11:50:59;10.60;;;3.70;;
7029;SDS011;3556;53.500;10.176;2022-10-28T11:53:52;9.47;;;4.30;;
7029;SDS011;3556;53.500;10.176;2022-10-28T11:56:48;11.63;;;4.57;;
7029;SDS011;3556;53.500;10.176;2022-10-28T12:04:52;10.97;;;3.87;;
7029;SDS011;3556;53.500;10.176;2022-10-28T12:16:32;17.53;;;4.03;;
7029;SDS011;3556;53.500;10.176;2022-10-28T12:19:10;14.67;;;4.33;;
7029;SDS011;3556;53.500;10.176;2022-10-28T12:21:42;8.23;;;4.40;;
7029;SDS011;3556;53.500;10.176;2022-10-28T12:24:16;8.73;;;3.47;;
7029;SDS011;3556;53.500;10.176;2022-10-28T12:26:52;9.13;;;4.20;;
7029;SDS011;3556;53.500;10.176;2022-10-28T12:29:22;14.37;;;4.33;;
7029;SDS011;3556;53.500;10.176;2022-10-28T12:31:55;13.07;;;4.57;;
7029;SDS011;3556;53.500;10.176;2022-10-28T12:34:30;13.63;;;4.10;;
7029;SDS011;3556;53.500;10.176;2022-10-28T12:37:15;13.27;;;4.00;;
7029;SDS011;3556;53.500;10.176;2022-10-28T12:39:50;18.43;;;4.50;;
7029;SDS011;3556;53.500;10.176;2022-10-28T12:42:28;8.67;;;3.93;;
7029;SDS011;3556;53.500;10.176;2022-10-28T12:44:59;17.87;;;4.13;;
7029;SDS011;3556;53.500;10.176;2022-10-28T12:47:42;9.07;;;4.20;;
7029;SDS011;3556;53.500;10.176;2022-10-28T12:55:49;12.10;;;4.07;;
7029;SDS011;3556;53.500;10.176;2022-10-28T13:01:03;5.57;;;3.90;;
7029;SDS011;3556;53.500;10.176;2022-10-28T13:03:38;12.80;;;4.20;;
7029;SDS011;3556;53.500;10.176;2022-10-28T13:08:59;11.33;;;3.93;;
7029;SDS011;3556;53.500;10.176;2022-10-28T13:11:39;18.87;;;4.10;;
7029;SDS011;3556;53.500;10.176;2022-10-28T13:16:56;13.40;;;3.70;;
7029;SDS011;3556;53.500;10.176;2022-10-28T13:19:52;11.90;;;4.27;;
7029;SDS011;3556;53.500;10.176;2022-10-28T13:28:05;17.90;;;4.47;;
7029;SDS011;3556;53.500;10.176;2022-10-28T13:30:36;12.63;;;3.80;;
7029;SDS011;3556;53.500;10.176;2022-10-28T13:33:05;18.40;;;4.00;;
7029;SDS011;3556;53.500;10.176;2022-10-28T13:35:33;10.10;;;3.73;;
7029;SDS011;3556;53.500;10.176;2022-10-28T13:38:01;7.60;;;3.33;;
7029;SDS011;3556;53.500;10.176;2022-10-28T13:42:59;16.40;;;4.60;;
7029;SDS011;3556;53.500;10.176;2022-10-28T13:58:58;11.60;;;3.87;;
7029;SDS011;3556;53.500;10.176;2022-10-28T14:04:20;14.80;;;3.93;;
7029;SDS011;3556;53.500;10.176;2022-10-28T14:07:02;14.87;;;4.77;;
7029;SDS011;3556;53.500;10.176;2022-10-28T14:09:34;11.17;;;4.07;;
7029;SDS011;3556;53.500;10.176;2022-10-28T14:14:51;19.97;;;4.50;;
7029;SDS011;3556;53.500;10.176;2022-10-28T14:17:46;11.03;;;4.17;;
7029;SDS011;3556;53.500;10.176;2022-10-28T14:22:48;7.80;;;4.30;;
7029;SDS011;3556;53.500;10.176;2022-10-28T14:36:34;13.00;;;4.27;;
7029;SDS011;3556;53.500;10.176;2022-10-28T14:50:06;9.20;;;4.70;;
7029;SDS011;3556;53.500;10.176;2022-10-28T14:52:46;13.80;;;4.63;;
7029;SDS011;3556;53.500;10.176;2022-10-28T14:57:53;13.57;;;4.87;;
7029;SDS011;3556;53.500;10.176;2022-10-28T15:00:42;16.90;;;4.50;;
7029;SDS011;3556;53.500;10.176;2022-10-28T15:03:18;10.40;;;4.20;;
7029;SDS011;3556;53.500;10.176;2022-10-28T15:05:44;14.07;;;4.77;;
7029;SDS011;3556;53.500;10.176;2022-10-28T15:08:10;14.40;;;5.37;;
7029;SDS011;3556;53.500;10.176;2022-10-28T15:10:35;14.70;;;5.93;;
7029;SDS011;3556;53.500;10.176;2022-10-28T15:13:01;11.07;;;4.80;;
7029;SDS011;3556;53.500;10.176;2022-10-28T15:15:29;7.50;;;5.53;;
7029;SDS011;3556;53.500;10.176;2022-10-28T15:17:57;10.63;;;5.80;;
7029;SDS011;3556;53.500;10.176;2022-10-28T15:26:05;15.70;;;5.93;;
7029;SDS011;3556;53.500;10.176;2022-10-28T15:28:31;24.10;;;6.03;;
7029;SDS011;3556;53.500;10.176;2022-10-28T15:30:57;14.93;;;6.37;;
7029;SDS011;3556;53.500;10.176;2022-10-28T15:36:15;10.67;;;5.03;;
7029;SDS011;3556;53.500;10.176;2022-10-28T15:39:05;15.70;;;5.73;;
7029;SDS011;3556;53.500;10.176;2022-10-28T15:41:38;12.23;;;5.10;;
7029;SDS011;3556;53.500;10.176;2022-10-28T15:44:39;13.30;;;5.60;;
7029;SDS011;3556;53.500;10.176;2022-10-28T15:47:18;13.20;;;5.90;;
7029;SDS011;3556;53.500;10.176;2022-10-28T15:50:01;11.27;;;5.50;;
7029;SDS011;3556;53.500;10.176;2022-10-28T15:52:40;10.60;;;6.20;;
7029;SDS011;3556;53.500;10.176;2022-10-28T15:57:50;18.27;;;5.90;;
7029;SDS011;3556;53.500;10.176;2022-10-28T16:03:00;12.83;;;5.67;;
7029;SDS011;3556;53.500;10.176;2022-10-28T16:10:25;13.10;;;5.40;;
7029;SDS011;3556;53.500;10.176;2022-10-28T16:12:54;8.63;;;5.67;;
7029;SDS011;3556;53.500;10.176;2022-10-28T16:15:19;21.33;;;6.13;;
7029;SDS011;3556;53.500;10.176;2022-10-28T16:17:45;12.67;;;5.70;;
7029;SDS011;3556;53.500;10.176;2022-10-28T16:20:11;14.40;;;6.10;;
7029;SDS011;3556;53.500;10.176;2022-10-28T16:22:40;20.03;;;6.77;;
7029;SDS011;3556;53.500;10.176;2022-10-28T16:25:13;11.80;;;6.03;;
7029;SDS011;3556;53.500;10.176;2022-10-28T16:27:40;12.57;;;5.53;;
7029;SDS011;3556;53.500;10.176;2022-10-28T16:30:06;16.93;;;6.03;;
7029;SDS011;3556;53.500;10.176;2022-10-28T16:32:38;14.40;;;5.97;;
7029;SDS011;3556;53.500;10.176;2022-10-28T16:35:40;11.33;;;6.17;;
7029;SDS011;3556;53.500;10.176;2022-10-28T16:37:58;12.10;;;6.67;;
7029;SDS011;3556;53.500;10.176;2022-10-28T16:40:24;18.50;;;7.27;;
7029;SDS011;3556;53.500;10.176;2022-10-28T16:42:50;27.00;;;6.47;;
7029;SDS011;3556;53.500;10.176;2022-10-28T16:45:16;16.20;;;6.40;;
7029;SDS011;3556;53.500;10.176;2022-10-28T16:47:42;22.23;;;6.60;;
7029;SDS011;3556;53.500;10.176;2022-10-28T16:50:09;14.30;;;6.67;;
7029;SDS011;3556;53.500;10.176;2022-10-28T16:52:35;16.00;;;5.60;;
7029;SDS011;3556;53.500;10.176;2022-10-28T16:55:00;11.83;;;6.07;;
7029;SDS011;3556;53.500;10.176;2022-10-28T16:57:26;11.07;;;6.23;;
7029;SDS011;3556;53.500;10.176;2022-10-28T16:59:52;19.67;;;7.43;;
7029;SDS011;3556;53.500;10.176;2022-10-28T17:02:21;17.17;;;7.50;;
7029;SDS011;3556;53.500;10.176;2022-10-28T17:04:55;18.87;;;6.97;;
7029;SDS011;3556;53.500;10.176;2022-10-28T17:07:21;21.60;;;9.20;;
7029;SDS011;3556;53.500;10.176;2022-10-28T17:09:47;19.10;;;8.27;;
7029;SDS011;3556;53.500;10.176;2022-10-28T17:12:13;21.87;;;8.33;;
7029;SDS011;3556;53.500;10.176;2022-10-28T17:14:40;44.83;;;21.37;;
7029;SDS011;3556;53.500;10.176;2022-10-28T17:17:05;20.53;;;12.90;;
7029;SDS011;3556;53.500;10.176;2022-10-28T17:19:31;17.80;;;9.60;;
7029;SDS011;3556;53.500;10.176;2022-10-28T17:21:56;17.40;;;8.60;;
7029;SDS011;3556;53.500;10.176;2022-10-28T17:24:22;11.90;;;7.43;;
7029;SDS011;3556;53.500;10.176;2022-10-28T17:26:48;16.53;;;7.63;;
7029;SDS011;3556;53.500;10.176;2022-10-28T17:29:13;16.17;;;8.13;;
7029;SDS011;3556;53.500;10.176;2022-10-28T17:31:39;16.03;;;8.13;;
7029;SDS011;3556;53.500;10.176;2022-10-28T17:34:05;20.20;;;8.60;;
7029;SDS011;3556;53.500;10.176;2022-10-28T17:36:30;14.97;;;8.23;;
7029;SDS011;3556;53.500;10.176;2022-10-28T17:38:57;12.87;;;8.23;;
7029;SDS011;3556;53.500;10.176;2022-10-28T17:41:23;16.70;;;9.10;;
7029;SDS011;3556;53.500;10.176;2022-10-28T17:43:51;16.43;;;8.17;;
7029;SDS011;3556;53.500;10.176;2022-10-28T17:46:17;19.07;;;7.50;;
7029;SDS011;3556;53.500;10.176;2022-10-28T17:48:42;17.80;;;6.90;;
7029;SDS011;3556;53.500;10.176;2022-10-28T17:51:08;20.73;;;7.97;;
7029;SDS011;3556;53.500;10.176;2022-10-28T17:53:34;19.50;;;7.70;;
7029;SDS011;3556;53.500;10.176;2022-10-28T17:56:00;17.63;;;7.50;;
7029;SDS011;3556;53.500;10.176;2022-10-28T17:58:27;22.50;;;7.53;;
7029;SDS011;3556;53.500;10.176;2022-10-28T18:01:01;17.60;;;8.10;;
7029;SDS011;3556;53.500;10.176;2022-10-28T18:03:31;18.53;;;8.17;;
7029;SDS011;3556;53.500;10.176;2022-10-28T18:06:10;16.63;;;8.00;;